sensor_id;sensor_type;location;lat;lon;timestamp;P1;durP1;ratioP1;P2;durP2;ratioP2
36415;SDS011;22447;44.530;18.620;2023-12-20T00:01:27;543.92;;;255.35;;
36415;SDS011;22447;44.530;18.620;2023-12-20T00:03:53;568.83;;;263.42;;
36415;SDS011;22447;44.530;18.620;2023-12-20T00:06:19;536.00;;;252.55;;
36415;SDS011;22447;44.530;18.620;2023-12-20T00:08:44;509.48;;;237.13;;
36415;SDS011;22447;44.530;18.620;2023-12-20T00:11:10;515.42;;;237.95;;
36415;SDS011;22447;44.530;18.620;2023-12-20T00:13:36;501.05;;;233.52;;
36415;SDS011;22447;44.530;18.620;2023-12-20T00:16:03;532.00;;;255.20;;
36415;SDS011;22447;44.530;18.620;2023-12-20T00:18:29;478.45;;;221.95;;
36415;SDS011;22447;44.530;18.620;2023-12-20T00:20:54;422.65;;;199.50;;
36415;SDS011;22447;44.530;18.620;2023-12-20T00:23:20;406.13;;;192.38;;
36415;SDS011;22447;44.530;18.620;2023-12-20T00:25:48;518.78;;;247.77;;
36415;SDS011;22447;44.530;18.620;2023-12-20T00:28:14;481.08;;;222.98;;
36415;SDS011;22447;44.530;18.620;2023-12-20T00:30:40;424.00;;;193.88;;
36415;SDS011;22447;44.530;18.620;2023-12-20T00:33:05;472.50;;;220.07;;
36415;SDS011;22447;44.530;18.620;2023-12-20T00:35:31;446.00;;;205.45;;
36415;SDS011;22447;44.530;18.620;2023-12-20T00:37:58;400.98;;;187.38;;
36415;SDS011;22447;44.530;18.620;2023-12-20T00:40:24;371.75;;;169.57;;
36415;SDS011;22447;44.530;18.620;2023-12-20T00:42:50;381.05;;;179.57;;
36415;SDS011;22447;44.530;18.620;2023-12-20T00:45:16;396.92;;;187.30;;
36415;SDS011;22447;44.530;18.620;2023-12-20T00:47:41;403.73;;;190.00;;
36415;SDS011;22447;44.530;18.620;2023-12-20T00:50:08;432.10;;;195.93;;
36415;SDS011;22447;44.530;18.620;2023-12-20T00:52:34;440.23;;;205.13;;
36415;SDS011;22447;44.530;18.620;2023-12-20T00:55:00;446.75;;;209.30;;
36415;SDS011;22447;44.530;18.620;2023-12-20T00:57:26;443.77;;;203.30;;
36415;SDS011;22447;44.530;18.620;2023-12-20T00:59:52;453.23;;;204.35;;
36415;SDS011;22447;44.530;18.620;2023-12-20T01:02:17;435.48;;;206.88;;
36415;SDS011;22447;44.530;18.620;2023-12-20T01:04:44;458.23;;;212.88;;
36415;SDS011;22447;44.530;18.620;2023-12-20T01:07:10;419.10;;;196.02;;
36415;SDS011;22447;44.530;18.620;2023-12-20T01:09:36;415.77;;;190.55;;
36415;SDS011;22447;44.530;18.620;2023-12-20T01:12:01;400.95;;;183.48;;
36415;SDS011;22447;44.530;18.620;2023-12-20T01:14:27;462.70;;;208.38;;
36415;SDS011;22447;44.530;18.620;2023-12-20T01:16:53;463.38;;;212.43;;
36415;SDS011;22447;44.530;18.620;2023-12-20T01:19:19;459.08;;;213.18;;
36415;SDS011;22447;44.530;18.620;2023-12-20T01:21:45;474.02;;;214.73;;
36415;SDS011;22447;44.530;18.620;2023-12-20T01:24:11;444.25;;;200.43;;
36415;SDS011;22447;44.530;18.620;2023-12-20T01:26:36;466.52;;;208.75;;
36415;SDS011;22447;44.530;18.620;2023-12-20T01:29:02;454.75;;;207.70;;
36415;SDS011;22447;44.530;18.620;2023-12-20T01:31:28;415.85;;;191.10;;
36415;SDS011;22447;44.530;18.620;2023-12-20T01:33:54;410.77;;;180.52;;
36415;SDS011;22447;44.530;18.620;2023-12-20T01:36:20;401.40;;;182.02;;
36415;SDS011;22447;44.530;18.620;2023-12-20T01:38:45;361.70;;;164.32;;
36415;SDS011;22447;44.530;18.620;2023-12-20T01:41:11;379.70;;;173.25;;
36415;SDS011;22447;44.530;18.620;2023-12-20T01:43:37;338.95;;;159.65;;
36415;SDS011;22447;44.530;18.620;2023-12-20T01:46:03;353.80;;;162.98;;
36415;SDS011;22447;44.530;18.620;2023-12-20T01:48:30;349.38;;;159.52;;
36415;SDS011;22447;44.530;18.620;2023-12-20T01:50:59;364.90;;;167.32;;
36415;SDS011;22447;44.530;18.620;2023-12-20T01:53:27;374.30;;;165.07;;
36415;SDS011;22447;44.530;18.620;2023-12-20T01:55:54;376.58;;;171.13;;
36415;SDS011;22447;44.530;18.620;2023-12-20T01:58:21;372.33;;;166.77;;
36415;SDS011;22447;44.530;18.620;2023-12-20T02:00:48;355.98;;;158.63;;
36415;SDS011;22447;44.530;18.620;2023-12-20T02:03:14;352.65;;;161.02;;
36415;SDS011;22447;44.530;18.620;2023-12-20T02:05:41;378.02;;;170.27;;
36415;SDS011;22447;44.530;18.620;2023-12-20T02:08:08;389.20;;;171.27;;
36415;SDS011;22447;44.530;18.620;2023-12-20T02:10:34;374.30;;;166.60;;
36415;SDS011;22447;44.530;18.620;2023-12-20T02:13:00;369.92;;;167.35;;
36415;SDS011;22447;44.530;18.620;2023-12-20T02:15:26;377.42;;;168.45;;
36415;SDS011;22447;44.530;18.620;2023-12-20T02:17:52;361.52;;;159.27;;
36415;SDS011;22447;44.530;18.620;2023-12-20T02:20:18;404.63;;;172.45;;
36415;SDS011;22447;44.530;18.620;2023-12-20T02:22:44;433.75;;;177.70;;
36415;SDS011;22447;44.530;18.620;2023-12-20T02:25:10;434.83;;;182.07;;
36415;SDS011;22447;44.530;18.620;2023-12-20T02:27:36;428.67;;;176.73;;
36415;SDS011;22447;44.530;18.620;2023-12-20T02:30:02;440.65;;;182.02;;
36415;SDS011;22447;44.530;18.620;2023-12-20T02:32:28;409.63;;;170.60;;
36415;SDS011;22447;44.530;18.620;2023-12-20T02:34:54;407.40;;;170.10;;
36415;SDS011;22447;44.530;18.620;2023-12-20T02:37:20;411.92;;;174.35;;
36415;SDS011;22447;44.530;18.620;2023-12-20T02:39:46;432.38;;;183.48;;
36415;SDS011;22447;44.530;18.620;2023-12-20T02:42:12;425.17;;;178.10;;
36415;SDS011;22447;44.530;18.620;2023-12-20T02:44:38;390.42;;;163.60;;
36415;SDS011;22447;44.530;18.620;2023-12-20T02:47:04;374.02;;;164.20;;
36415;SDS011;22447;44.530;18.620;2023-12-20T02:49:30;399.80;;;169.60;;
36415;SDS011;22447;44.530;18.620;2023-12-20T02:51:56;332.05;;;144.52;;
36415;SDS011;22447;44.530;18.620;2023-12-20T02:54:22;348.40;;;156.77;;
36415;SDS011;22447;44.530;18.620;2023-12-20T02:56:48;337.10;;;148.60;;
36415;SDS011;22447;44.530;18.620;2023-12-20T02:59:14;334.38;;;150.90;;
36415;SDS011;22447;44.530;18.620;2023-12-20T03:01:46;306.27;;;141.73;;
36415;SDS011;22447;44.530;18.620;2023-12-20T03:04:12;304.98;;;142.98;;
36415;SDS011;22447;44.530;18.620;2023-12-20T03:06:38;329.92;;;146.32;;
36415;SDS011;22447;44.530;18.620;2023-12-20T03:09:04;345.13;;;150.77;;
36415;SDS011;22447;44.530;18.620;2023-12-20T03:11:30;336.77;;;151.32;;
36415;SDS011;22447;44.530;18.620;2023-12-20T03:13:56;297.73;;;135.60;;
36415;SDS011;22447;44.530;18.620;2023-12-20T03:16:22;266.38;;;119.68;;
36415;SDS011;22447;44.530;18.620;2023-12-20T03:18:49;261.25;;;118.60;;
36415;SDS011;22447;44.530;18.620;2023-12-20T03:21:15;245.15;;;112.28;;
36415;SDS011;22447;44.530;18.620;2023-12-20T03:23:41;246.27;;;114.20;;
36415;SDS011;22447;44.530;18.620;2023-12-20T03:26:07;267.25;;;122.00;;
36415;SDS011;22447;44.530;18.620;2023-12-20T03:28:33;303.80;;;139.02;;
36415;SDS011;22447;44.530;18.620;2023-12-20T03:31:00;303.13;;;137.77;;
36415;SDS011;22447;44.530;18.620;2023-12-20T03:33:27;289.60;;;130.93;;
36415;SDS011;22447;44.530;18.620;2023-12-20T03:35:54;272.73;;;127.60;;
36415;SDS011;22447;44.530;18.620;2023-12-20T03:38:20;297.05;;;133.20;;
36415;SDS011;22447;44.530;18.620;2023-12-20T03:40:46;296.42;;;135.45;;
36415;SDS011;22447;44.530;18.620;2023-12-20T03:43:12;276.35;;;128.23;;
36415;SDS011;22447;44.530;18.620;2023-12-20T03:45:38;291.83;;;131.55;;
36415;SDS011;22447;44.530;18.620;2023-12-20T03:48:04;335.30;;;145.57;;
36415;SDS011;22447;44.530;18.620;2023-12-20T03:50:30;323.63;;;143.85;;
36415;SDS011;22447;44.530;18.620;2023-12-20T03:52:56;314.60;;;143.25;;
36415;SDS011;22447;44.530;18.620;2023-12-20T03:55:22;312.73;;;141.02;;
36415;SDS011;22447;44.530;18.620;2023-12-20T03:57:48;302.35;;;136.02;;
36415;SDS011;22447;44.530;18.620;2023-12-20T04:00:14;304.75;;;135.07;;
36415;SDS011;22447;44.530;18.620;2023-12-20T04:02:40;313.33;;;135.98;;
36415;SDS011;22447;44.530;18.620;2023-12-20T04:05:08;289.60;;;132.52;;
36415;SDS011;22447;44.530;18.620;2023-12-20T04:07:35;290.20;;;129.45;;
36415;SDS011;22447;44.530;18.620;2023-12-20T04:10:01;284.60;;;125.82;;
36415;SDS011;22447;44.530;18.620;2023-12-20T04:12:29;282.73;;;130.63;;
36415;SDS011;22447;44.530;18.620;2023-12-20T04:14:55;283.80;;;128.40;;
36415;SDS011;22447;44.530;18.620;2023-12-20T04:17:21;287.67;;;132.63;;
36415;SDS011;22447;44.530;18.620;2023-12-20T04:19:48;256.70;;;117.63;;
36415;SDS011;22447;44.530;18.620;2023-12-20T04:22:15;266.25;;;120.53;;
36415;SDS011;22447;44.530;18.620;2023-12-20T04:24:41;280.67;;;127.15;;
36415;SDS011;22447;44.530;18.620;2023-12-20T04:27:09;247.52;;;116.78;;
36415;SDS011;22447;44.530;18.620;2023-12-20T04:29:35;255.20;;;116.40;;
36415;SDS011;22447;44.530;18.620;2023-12-20T04:32:01;254.43;;;120.93;;
36415;SDS011;22447;44.530;18.620;2023-12-20T04:34:27;280.77;;;135.13;;
36415;SDS011;22447;44.530;18.620;2023-12-20T04:36:53;273.23;;;132.35;;
36415;SDS011;22447;44.530;18.620;2023-12-20T04:39:19;275.70;;;129.10;;
36415;SDS011;22447;44.530;18.620;2023-12-20T04:41:45;278.65;;;126.70;;
36415;SDS011;22447;44.530;18.620;2023-12-20T04:44:13;239.07;;;109.95;;
36415;SDS011;22447;44.530;18.620;2023-12-20T04:46:39;232.50;;;110.20;;
36415;SDS011;22447;44.530;18.620;2023-12-20T04:49:05;237.02;;;110.03;;
36415;SDS011;22447;44.530;18.620;2023-12-20T04:51:34;231.98;;;108.95;;
36415;SDS011;22447;44.530;18.620;2023-12-20T04:54:00;237.13;;;112.85;;
36415;SDS011;22447;44.530;18.620;2023-12-20T04:56:27;229.27;;;106.38;;
36415;SDS011;22447;44.530;18.620;2023-12-20T04:58:53;227.07;;;106.53;;
36415;SDS011;22447;44.530;18.620;2023-12-20T05:01:19;231.60;;;106.05;;
36415;SDS011;22447;44.530;18.620;2023-12-20T05:03:45;216.25;;;100.70;;
36415;SDS011;22447;44.530;18.620;2023-12-20T05:06:11;216.95;;;103.63;;
36415;SDS011;22447;44.530;18.620;2023-12-20T05:08:37;215.48;;;100.15;;
36415;SDS011;22447;44.530;18.620;2023-12-20T05:11:03;225.70;;;109.47;;
36415;SDS011;22447;44.530;18.620;2023-12-20T05:13:29;219.73;;;104.03;;
36415;SDS011;22447;44.530;18.620;2023-12-20T05:15:55;226.85;;;110.82;;
36415;SDS011;22447;44.530;18.620;2023-12-20T05:18:21;212.77;;;99.85;;
36415;SDS011;22447;44.530;18.620;2023-12-20T05:20:48;261.90;;;129.68;;
36415;SDS011;22447;44.530;18.620;2023-12-20T05:23:15;262.00;;;118.72;;
36415;SDS011;22447;44.530;18.620;2023-12-20T05:25:42;254.98;;;109.90;;
36415;SDS011;22447;44.530;18.620;2023-12-20T05:28:08;235.95;;;106.80;;
36415;SDS011;22447;44.530;18.620;2023-12-20T05:30:34;213.65;;;99.50;;
36415;SDS011;22447;44.530;18.620;2023-12-20T05:33:00;201.60;;;94.60;;
36415;SDS011;22447;44.530;18.620;2023-12-20T05:35:26;198.02;;;87.38;;
36415;SDS011;22447;44.530;18.620;2023-12-20T05:37:52;197.50;;;93.82;;
36415;SDS011;22447;44.530;18.620;2023-12-20T05:40:18;204.35;;;92.32;;
36415;SDS011;22447;44.530;18.620;2023-12-20T05:42:43;211.52;;;96.50;;
36415;SDS011;22447;44.530;18.620;2023-12-20T05:45:09;202.15;;;94.80;;
36415;SDS011;22447;44.530;18.620;2023-12-20T05:47:36;220.57;;;101.57;;
36415;SDS011;22447;44.530;18.620;2023-12-20T05:50:02;220.10;;;103.63;;
36415;SDS011;22447;44.530;18.620;2023-12-20T05:52:29;234.40;;;105.07;;
36415;SDS011;22447;44.530;18.620;2023-12-20T05:54:55;204.23;;;92.25;;
36415;SDS011;22447;44.530;18.620;2023-12-20T05:57:23;219.00;;;98.60;;
36415;SDS011;22447;44.530;18.620;2023-12-20T05:59:49;222.15;;;102.25;;
36415;SDS011;22447;44.530;18.620;2023-12-20T06:02:15;231.93;;;101.07;;
36415;SDS011;22447;44.530;18.620;2023-12-20T06:04:44;261.83;;;109.40;;
36415;SDS011;22447;44.530;18.620;2023-12-20T06:07:13;384.52;;;137.63;;
36415;SDS011;22447;44.530;18.620;2023-12-20T06:09:40;308.33;;;123.55;;
36415;SDS011;22447;44.530;18.620;2023-12-20T06:12:06;222.73;;;96.40;;
36415;SDS011;22447;44.530;18.620;2023-12-20T06:14:33;202.55;;;91.05;;
36415;SDS011;22447;44.530;18.620;2023-12-20T06:17:00;185.95;;;81.43;;
36415;SDS011;22447;44.530;18.620;2023-12-20T06:19:26;224.38;;;99.05;;
36415;SDS011;22447;44.530;18.620;2023-12-20T06:21:53;252.77;;;105.60;;
36415;SDS011;22447;44.530;18.620;2023-12-20T06:24:19;252.27;;;106.38;;
36415;SDS011;22447;44.530;18.620;2023-12-20T06:26:44;233.82;;;101.82;;
36415;SDS011;22447;44.530;18.620;2023-12-20T06:29:10;250.35;;;112.47;;
36415;SDS011;22447;44.530;18.620;2023-12-20T06:31:37;242.85;;;109.53;;
36415;SDS011;22447;44.530;18.620;2023-12-20T06:34:03;241.75;;;105.88;;
36415;SDS011;22447;44.530;18.620;2023-12-20T06:36:29;256.05;;;118.55;;
36415;SDS011;22447;44.530;18.620;2023-12-20T06:38:55;192.15;;;93.95;;
36415;SDS011;22447;44.530;18.620;2023-12-20T06:41:21;194.43;;;92.47;;
36415;SDS011;22447;44.530;18.620;2023-12-20T06:43:46;206.20;;;97.95;;
36415;SDS011;22447;44.530;18.620;2023-12-20T06:46:12;213.40;;;95.28;;
36415;SDS011;22447;44.530;18.620;2023-12-20T06:48:39;207.07;;;97.63;;
36415;SDS011;22447;44.530;18.620;2023-12-20T06:51:05;194.55;;;95.07;;
36415;SDS011;22447;44.530;18.620;2023-12-20T06:53:32;222.15;;;105.05;;
36415;SDS011;22447;44.530;18.620;2023-12-20T06:55:57;206.73;;;97.25;;
36415;SDS011;22447;44.530;18.620;2023-12-20T06:58:23;199.60;;;98.70;;
36415;SDS011;22447;44.530;18.620;2023-12-20T07:00:50;202.52;;;97.15;;
36415;SDS011;22447;44.530;18.620;2023-12-20T07:03:16;220.55;;;102.93;;
36415;SDS011;22447;44.530;18.620;2023-12-20T07:05:43;203.43;;;98.40;;
36415;SDS011;22447;44.530;18.620;2023-12-20T07:08:09;230.13;;;106.32;;
36415;SDS011;22447;44.530;18.620;2023-12-20T07:10:36;265.25;;;124.55;;
36415;SDS011;22447;44.530;18.620;2023-12-20T07:13:02;301.83;;;140.25;;
36415;SDS011;22447;44.530;18.620;2023-12-20T07:15:28;261.63;;;112.10;;
36415;SDS011;22447;44.530;18.620;2023-12-20T07:17:54;286.35;;;117.07;;
36415;SDS011;22447;44.530;18.620;2023-12-20T07:20:20;272.00;;;119.50;;
36415;SDS011;22447;44.530;18.620;2023-12-20T07:22:46;259.90;;;116.90;;
36415;SDS011;22447;44.530;18.620;2023-12-20T07:25:12;337.60;;;120.05;;
36415;SDS011;22447;44.530;18.620;2023-12-20T07:27:38;241.85;;;114.50;;
36415;SDS011;22447;44.530;18.620;2023-12-20T07:30:04;844.53;;;165.98;;
36415;SDS011;22447;44.530;18.620;2023-12-20T07:32:30;323.73;;;132.45;;
36415;SDS011;22447;44.530;18.620;2023-12-20T07:34:57;277.55;;;124.80;;
36415;SDS011;22447;44.530;18.620;2023-12-20T07:37:23;254.95;;;116.53;;
36415;SDS011;22447;44.530;18.620;2023-12-20T07:39:49;246.02;;;111.75;;
36415;SDS011;22447;44.530;18.620;2023-12-20T07:42:15;233.43;;;108.70;;
36415;SDS011;22447;44.530;18.620;2023-12-20T07:44:40;239.07;;;114.47;;
36415;SDS011;22447;44.530;18.620;2023-12-20T07:47:07;254.63;;;118.32;;
36415;SDS011;22447;44.530;18.620;2023-12-20T07:49:33;269.77;;;129.05;;
36415;SDS011;22447;44.530;18.620;2023-12-20T07:51:59;277.27;;;125.63;;
36415;SDS011;22447;44.530;18.620;2023-12-20T07:54:24;239.75;;;116.97;;
36415;SDS011;22447;44.530;18.620;2023-12-20T07:56:50;269.50;;;123.22;;
36415;SDS011;22447;44.530;18.620;2023-12-20T07:59:16;263.20;;;124.03;;
36415;SDS011;22447;44.530;18.620;2023-12-20T08:01:42;262.40;;;131.77;;
36415;SDS011;22447;44.530;18.620;2023-12-20T08:04:08;299.05;;;148.60;;
36415;SDS011;22447;44.530;18.620;2023-12-20T08:06:34;300.38;;;147.68;;
36415;SDS011;22447;44.530;18.620;2023-12-20T08:09:00;307.75;;;154.43;;
36415;SDS011;22447;44.530;18.620;2023-12-20T08:11:26;320.25;;;161.82;;
36415;SDS011;22447;44.530;18.620;2023-12-20T08:13:52;339.52;;;173.35;;
36415;SDS011;22447;44.530;18.620;2023-12-20T08:16:17;320.45;;;166.32;;
36415;SDS011;22447;44.530;18.620;2023-12-20T08:18:44;337.88;;;171.60;;
36415;SDS011;22447;44.530;18.620;2023-12-20T08:21:10;332.23;;;177.05;;
36415;SDS011;22447;44.530;18.620;2023-12-20T08:23:36;369.45;;;179.43;;
36415;SDS011;22447;44.530;18.620;2023-12-20T08:26:06;459.67;;;219.35;;
36415;SDS011;22447;44.530;18.620;2023-12-20T08:28:33;432.48;;;210.27;;
36415;SDS011;22447;44.530;18.620;2023-12-20T08:30:59;428.05;;;211.57;;
36415;SDS011;22447;44.530;18.620;2023-12-20T08:33:26;388.40;;;202.15;;
36415;SDS011;22447;44.530;18.620;2023-12-20T08:35:51;363.08;;;190.65;;
36415;SDS011;22447;44.530;18.620;2023-12-20T08:38:17;347.85;;;190.13;;
36415;SDS011;22447;44.530;18.620;2023-12-20T08:40:44;378.50;;;206.10;;
36415;SDS011;22447;44.530;18.620;2023-12-20T08:43:10;378.15;;;207.07;;
36415;SDS011;22447;44.530;18.620;2023-12-20T08:45:36;402.15;;;221.98;;
36415;SDS011;22447;44.530;18.620;2023-12-20T08:48:02;390.38;;;217.57;;
36415;SDS011;22447;44.530;18.620;2023-12-20T08:50:28;383.30;;;213.55;;
36415;SDS011;22447;44.530;18.620;2023-12-20T08:52:54;363.15;;;206.88;;
36415;SDS011;22447;44.530;18.620;2023-12-20T08:55:20;355.90;;;210.52;;
36415;SDS011;22447;44.530;18.620;2023-12-20T08:57:46;353.05;;;201.32;;
36415;SDS011;22447;44.530;18.620;2023-12-20T09:00:12;292.33;;;165.63;;
36415;SDS011;22447;44.530;18.620;2023-12-20T09:02:39;253.57;;;148.63;;
36415;SDS011;22447;44.530;18.620;2023-12-20T09:05:05;264.17;;;148.98;;
36415;SDS011;22447;44.530;18.620;2023-12-20T09:07:31;249.45;;;147.15;;
36415;SDS011;22447;44.530;18.620;2023-12-20T09:09:57;289.05;;;162.80;;
36415;SDS011;22447;44.530;18.620;2023-12-20T09:12:24;215.60;;;128.18;;
36415;SDS011;22447;44.530;18.620;2023-12-20T09:14:50;224.02;;;122.95;;
36415;SDS011;22447;44.530;18.620;2023-12-20T09:17:17;227.63;;;122.68;;
36415;SDS011;22447;44.530;18.620;2023-12-20T09:19:44;213.25;;;118.40;;
36415;SDS011;22447;44.530;18.620;2023-12-20T09:22:10;195.40;;;107.43;;
36415;SDS011;22447;44.530;18.620;2023-12-20T09:24:36;177.77;;;102.20;;
36415;SDS011;22447;44.530;18.620;2023-12-20T09:27:03;154.77;;;89.40;;
36415;SDS011;22447;44.530;18.620;2023-12-20T09:29:30;186.25;;;93.97;;
36415;SDS011;22447;44.530;18.620;2023-12-20T09:31:56;169.63;;;97.15;;
36415;SDS011;22447;44.530;18.620;2023-12-20T09:34:22;173.38;;;95.32;;
36415;SDS011;22447;44.530;18.620;2023-12-20T09:36:49;161.35;;;94.68;;
36415;SDS011;22447;44.530;18.620;2023-12-20T09:39:16;181.02;;;102.57;;
36415;SDS011;22447;44.530;18.620;2023-12-20T09:41:48;204.68;;;109.05;;
36415;SDS011;22447;44.530;18.620;2023-12-20T09:44:24;195.43;;;109.13;;
36415;SDS011;22447;44.530;18.620;2023-12-20T09:46:50;191.55;;;111.30;;
36415;SDS011;22447;44.530;18.620;2023-12-20T09:49:17;176.95;;;100.40;;
36415;SDS011;22447;44.530;18.620;2023-12-20T09:51:44;152.55;;;95.78;;
36415;SDS011;22447;44.530;18.620;2023-12-20T09:54:15;175.75;;;100.38;;
36415;SDS011;22447;44.530;18.620;2023-12-20T09:56:42;165.63;;;101.60;;
36415;SDS011;22447;44.530;18.620;2023-12-20T09:59:08;178.50;;;104.88;;
36415;SDS011;22447;44.530;18.620;2023-12-20T10:01:35;194.80;;;108.05;;
36415;SDS011;22447;44.530;18.620;2023-12-20T10:04:04;203.15;;;111.13;;
36415;SDS011;22447;44.530;18.620;2023-12-20T10:06:37;204.68;;;113.45;;
36415;SDS011;22447;44.530;18.620;2023-12-20T10:09:11;186.68;;;111.63;;
36415;SDS011;22447;44.530;18.620;2023-12-20T10:11:38;186.68;;;111.88;;
36415;SDS011;22447;44.530;18.620;2023-12-20T10:14:04;191.63;;;112.18;;
36415;SDS011;22447;44.530;18.620;2023-12-20T10:16:35;186.75;;;110.45;;
36415;SDS011;22447;44.530;18.620;2023-12-20T10:19:01;176.27;;;107.70;;
36415;SDS011;22447;44.530;18.620;2023-12-20T10:21:27;191.10;;;111.07;;
36415;SDS011;22447;44.530;18.620;2023-12-20T10:23:56;189.70;;;109.57;;
36415;SDS011;22447;44.530;18.620;2023-12-20T10:26:24;189.35;;;111.40;;
36415;SDS011;22447;44.530;18.620;2023-12-20T10:28:52;168.88;;;103.28;;
36415;SDS011;22447;44.530;18.620;2023-12-20T10:33:58;159.90;;;100.40;;
36415;SDS011;22447;44.530;18.620;2023-12-20T10:36:25;178.70;;;99.60;;
36415;SDS011;22447;44.530;18.620;2023-12-20T10:38:53;162.52;;;83.38;;
36415;SDS011;22447;44.530;18.620;2023-12-20T10:41:24;148.13;;;76.57;;
36415;SDS011;22447;44.530;18.620;2023-12-20T10:43:59;110.32;;;61.88;;
36415;SDS011;22447;44.530;18.620;2023-12-20T10:46:27;111.43;;;59.55;;
36415;SDS011;22447;44.530;18.620;2023-12-20T10:48:55;102.93;;;54.88;;
36415;SDS011;22447;44.530;18.620;2023-12-20T10:51:22;86.63;;;51.13;;
36415;SDS011;22447;44.530;18.620;2023-12-20T10:53:51;90.43;;;53.33;;
36415;SDS011;22447;44.530;18.620;2023-12-20T10:56:18;89.72;;;52.70;;
36415;SDS011;22447;44.530;18.620;2023-12-20T10:58:47;101.13;;;52.95;;
36415;SDS011;22447;44.530;18.620;2023-12-20T11:01:15;110.43;;;58.88;;
36415;SDS011;22447;44.530;18.620;2023-12-20T11:03:49;107.57;;;57.67;;
36415;SDS011;22447;44.530;18.620;2023-12-20T11:14:46;102.85;;;54.75;;
36415;SDS011;22447;44.530;18.620;2023-12-20T11:17:13;80.78;;;47.88;;
36415;SDS011;22447;44.530;18.620;2023-12-20T11:22:18;67.00;;;40.30;;
36415;SDS011;22447;44.530;18.620;2023-12-20T11:24:49;75.28;;;40.30;;
36415;SDS011;22447;44.530;18.620;2023-12-20T11:27:17;64.35;;;35.78;;
36415;SDS011;22447;44.530;18.620;2023-12-20T11:29:54;58.07;;;34.13;;
36415;SDS011;22447;44.530;18.620;2023-12-20T11:34:53;55.70;;;30.63;;
36415;SDS011;22447;44.530;18.620;2023-12-20T11:40:06;54.33;;;32.67;;
36415;SDS011;22447;44.530;18.620;2023-12-20T11:42:40;52.05;;;33.42;;
36415;SDS011;22447;44.530;18.620;2023-12-20T11:45:08;59.25;;;35.80;;
36415;SDS011;22447;44.530;18.620;2023-12-20T11:47:35;62.42;;;35.38;;
36415;SDS011;22447;44.530;18.620;2023-12-20T11:50:01;83.38;;;37.33;;
36415;SDS011;22447;44.530;18.620;2023-12-20T11:52:29;69.03;;;38.72;;
36415;SDS011;22447;44.530;18.620;2023-12-20T11:54:55;73.75;;;40.00;;
36415;SDS011;22447;44.530;18.620;2023-12-20T11:57:22;105.10;;;46.90;;
36415;SDS011;22447;44.530;18.620;2023-12-20T11:59:48;100.63;;;52.00;;
36415;SDS011;22447;44.530;18.620;2023-12-20T12:02:14;104.70;;;55.60;;
36415;SDS011;22447;44.530;18.620;2023-12-20T12:04:43;127.60;;;59.83;;
36415;SDS011;22447;44.530;18.620;2023-12-20T12:07:09;90.35;;;51.47;;
36415;SDS011;22447;44.530;18.620;2023-12-20T12:09:35;83.07;;;46.55;;
36415;SDS011;22447;44.530;18.620;2023-12-20T12:12:01;89.15;;;46.33;;
36415;SDS011;22447;44.530;18.620;2023-12-20T12:14:27;76.55;;;43.80;;
36415;SDS011;22447;44.530;18.620;2023-12-20T12:16:53;87.93;;;45.88;;
36415;SDS011;22447;44.530;18.620;2023-12-20T12:19:20;92.07;;;49.88;;
36415;SDS011;22447;44.530;18.620;2023-12-20T12:21:47;113.85;;;65.40;;
36415;SDS011;22447;44.530;18.620;2023-12-20T12:24:13;221.43;;;166.82;;
36415;SDS011;22447;44.530;18.620;2023-12-20T12:26:38;95.35;;;58.17;;
36415;SDS011;22447;44.530;18.620;2023-12-20T12:29:07;121.63;;;56.95;;
36415;SDS011;22447;44.530;18.620;2023-12-20T12:31:33;86.55;;;45.28;;
36415;SDS011;22447;44.530;18.620;2023-12-20T12:33:59;77.22;;;41.30;;
36415;SDS011;22447;44.530;18.620;2023-12-20T12:36:25;79.15;;;41.95;;
36415;SDS011;22447;44.530;18.620;2023-12-20T12:38:51;67.35;;;39.38;;
36415;SDS011;22447;44.530;18.620;2023-12-20T12:41:17;68.65;;;37.20;;
36415;SDS011;22447;44.530;18.620;2023-12-20T12:43:44;62.53;;;36.97;;
36415;SDS011;22447;44.530;18.620;2023-12-20T12:46:10;62.78;;;38.47;;
36415;SDS011;22447;44.530;18.620;2023-12-20T12:48:36;72.68;;;37.88;;
36415;SDS011;22447;44.530;18.620;2023-12-20T12:51:02;64.47;;;40.05;;
36415;SDS011;22447;44.530;18.620;2023-12-20T12:53:28;65.75;;;38.35;;
36415;SDS011;22447;44.530;18.620;2023-12-20T12:55:54;79.97;;;41.53;;
36415;SDS011;22447;44.530;18.620;2023-12-20T12:58:20;72.00;;;42.25;;
36415;SDS011;22447;44.530;18.620;2023-12-20T13:00:47;93.95;;;44.88;;
36415;SDS011;22447;44.530;18.620;2023-12-20T13:03:13;101.65;;;44.40;;
36415;SDS011;22447;44.530;18.620;2023-12-20T13:05:39;92.80;;;45.70;;
36415;SDS011;22447;44.530;18.620;2023-12-20T13:08:05;108.25;;;49.75;;
36415;SDS011;22447;44.530;18.620;2023-12-20T13:10:31;89.72;;;44.55;;
36415;SDS011;22447;44.530;18.620;2023-12-20T13:12:57;84.38;;;49.15;;
36415;SDS011;22447;44.530;18.620;2023-12-20T13:15:23;78.47;;;44.15;;
36415;SDS011;22447;44.530;18.620;2023-12-20T13:17:49;90.78;;;47.58;;
36415;SDS011;22447;44.530;18.620;2023-12-20T13:20:15;125.70;;;63.65;;
36415;SDS011;22447;44.530;18.620;2023-12-20T13:22:41;118.50;;;58.92;;
36415;SDS011;22447;44.530;18.620;2023-12-20T13:25:07;119.35;;;57.63;;
36415;SDS011;22447;44.530;18.620;2023-12-20T13:27:33;121.50;;;56.38;;
36415;SDS011;22447;44.530;18.620;2023-12-20T13:29:59;126.90;;;57.40;;
36415;SDS011;22447;44.530;18.620;2023-12-20T13:32:25;115.45;;;59.38;;
36415;SDS011;22447;44.530;18.620;2023-12-20T13:34:51;139.52;;;66.53;;
36415;SDS011;22447;44.530;18.620;2023-12-20T13:37:17;139.73;;;66.63;;
36415;SDS011;22447;44.530;18.620;2023-12-20T13:39:43;128.75;;;64.95;;
36415;SDS011;22447;44.530;18.620;2023-12-20T13:42:09;135.02;;;67.60;;
36415;SDS011;22447;44.530;18.620;2023-12-20T13:44:35;135.65;;;66.32;;
36415;SDS011;22447;44.530;18.620;2023-12-20T13:47:01;130.93;;;68.68;;
36415;SDS011;22447;44.530;18.620;2023-12-20T13:49:27;131.10;;;67.47;;
36415;SDS011;22447;44.530;18.620;2023-12-20T13:51:53;144.13;;;68.32;;
36415;SDS011;22447;44.530;18.620;2023-12-20T13:54:23;131.70;;;68.72;;
36415;SDS011;22447;44.530;18.620;2023-12-20T13:56:49;151.60;;;71.60;;
36415;SDS011;22447;44.530;18.620;2023-12-20T13:59:15;160.23;;;75.30;;
36415;SDS011;22447;44.530;18.620;2023-12-20T14:01:41;158.55;;;76.93;;
36415;SDS011;22447;44.530;18.620;2023-12-20T14:04:07;171.38;;;83.45;;